• Join FlightAware (Why Join?)
  • Login
  • US Flag 
Trick or treat! (Boo!!) 
07:54PM EDT


 

Airport Tracker/Info


-or-


 

Live Flight TrackerFlight Track Log ✈ N240JK ✈ 25-Jun-2014 ✈ KPIE - KUES

Flight Track Log - Related Links

Times and Time Zones

All times are in EDT time to prevent confusion due to time zone crossing. See the N240JK flight status page for this flight to view local times or setup timezone preferences in your user account.

Time Position Orientation Groundspeed Altitude Reporting Facility
EDT Latitude Longitude Course Direction KTS MPH feet Rate Location/Type
02:29PM 27.9333 -82.7000 333° Northwest 179 206 700  Level Tampa TRACON
02:30PM 27.9667 -82.7000 360° North 204 235 1,900 1,680 Climbing Tampa TRACON
02:31PM 28.0333 -82.7333 336° Northwest 220 253 4,100 1,500 Climbing Tampa TRACON
02:32PM 28.1000 -82.7500 348° North 215 247 5,300 2,100 Climbing Tampa TRACON
02:34PM 28.2125 -82.7700 351° North 251 289 9,600 2,640 Climbing Jacksonville Center
02:35PM 28.4941 -83.0523 333° Northwest  Level FlightAware Approximate
02:35PM 28.3000 -82.7842 352° North 282 325 12,100  Level Jacksonville Center
02:36PM 28.3983 -82.8053 349° North 326 375 15,000 2,880 Climbing Jacksonville Center
02:37PM 28.5006 -82.8336 346° North 358 412 17,900 3,000 Climbing Jacksonville Center
02:38PM 28.5986 -82.8736 340° North 365 420 21,000 2,700 Climbing Jacksonville Center
02:39PM 28.6736 -82.9186 332° Northwest 376 433 23,300 2,580 Climbing Jacksonville Center
02:40PM 28.7781 -82.9803 333° Northwest 376 433 26,200 2,460 Climbing Jacksonville Center
02:41PM 28.8844 -83.0136 345° North 381 438 28,300 2,040 Climbing Jacksonville Center
02:42PM 28.9950 -83.0444 346° North 397 457 30,300 1,860 Climbing Jacksonville Center
02:43PM 29.1097 -83.0781 346° North 409 471 32,100 1,740 Climbing Jacksonville Center
02:44PM 29.2267 -83.1139 345° North 416 479 33,800 1,680 Climbing Jacksonville Center
02:45PM 29.3456 -83.1475 346° North 426 490 35,500 1,680 Climbing Jacksonville Center
02:46PM 29.4769 -83.1861 346° North 431 496 37,200 1,740 Climbing Jacksonville Center
02:47PM 29.5917 -83.2175 347° North 448 516 39,000 1,380 Climbing Jacksonville Center
02:48PM 29.7169 -83.2586 344° North 438 504 40,000 480 Climbing Jacksonville Center
02:49PM 29.8378 -83.2925 346° North 438 504 40,000  Level Jacksonville Center
02:50PM 29.9547 -83.3242 347° North 433 498 40,000  Level Jacksonville Center
02:51PM 30.0714 -83.3558 347° North 433 498 40,000  Level Jacksonville Center
02:52PM 30.1861 -83.3875 347° North 433 498 40,000  Level Jacksonville Center
02:53PM 30.3008 -83.4242 345° North 433 498 40,000  Level Jacksonville Center
02:54PM 30.4178 -83.4561 347° North 428 493 40,000  Level Jacksonville Center
02:55PM 30.5303 -83.4883 346° North 428 493 40,000  Level Jacksonville Center
02:56PM 30.6469 -83.5253 345° North 428 493 40,000  Level Jacksonville Center
02:57PM 30.7575 -83.5575 346° North 422 486 40,000  Level Jacksonville Center
02:58PM 30.8556 -83.5872 345° North 410 472 40,000  Level Jacksonville Center
02:59PM 30.9681 -83.6219 345° North 410 472 40,000  Level Jacksonville Center
03:00PM 31.0806 -83.6542 346° North 410 472 40,000  Level Jacksonville Center
03:02PM 31.3728 -83.7422 346° North 415 478 40,000  Level Atlanta Center
03:03PM 31.4833 -83.7783 344° North 415 478 40,000  Level Atlanta Center
03:04PM 31.5731 -83.8050 346° North 410 472 40,000  Level Atlanta Center
03:05PM 31.6983 -83.8411 346° North 415 478 40,000  Level Atlanta Center
03:06PM 31.8194 -83.8800 345° North 424 488 40,000  Level Atlanta Center
03:07PM 31.9281 -83.9117 346° North 424 488 40,000  Level Atlanta Center
03:08PM 32.0408 -83.9458 346° North 413 475 40,000  Level Atlanta Center
03:09PM 32.1536 -83.9775 347° North 408 470 40,000  Level Atlanta Center
03:10PM 32.2642 -84.0119 345° North 413 475 40,000  Level Atlanta Center
03:11PM 32.3750 -84.0461 345° North 413 475 40,000  Level Atlanta Center
03:12PM 32.4856 -84.0808 345° North 413 475 40,000  Level Atlanta Center
03:13PM 32.5981 -84.1153 346° North 413 475 40,000  Level Atlanta Center
03:14PM 32.7131 -84.1500 346° North 413 475 40,000  Level Atlanta Center
03:15PM 32.8256 -84.1872 344° North 413 475 40,000  Level Atlanta Center
03:16PM 32.9467 -84.2244 346° North 413 475 40,000  Level Atlanta Center
03:17PM 33.0594 -84.2594 345° North 413 475 40,000  Level Atlanta Center
03:18PM 33.1719 -84.2919 346° North 413 475 40,000  Level Atlanta Center
03:19PM 33.2867 -84.3319 344° North 413 475 40,000  Level Atlanta Center
03:20PM 33.3994 -84.3647 346° North 413 475 40,000  Level Atlanta Center
03:21PM 33.5100 -84.4000 345° North 413 475 40,000  Level Atlanta Center
03:22PM 33.6142 -84.4331 345° North 413 475 40,000  Level Atlanta Center
03:23PM 33.7206 -84.4608 348° North 406 467 40,000  Level Atlanta Center
03:24PM 33.8456 -84.4914 349° North 420 483 40,000  Level Atlanta Center
03:25PM 33.9625 -84.5172 350° North 425 489 40,000  Level Atlanta Center
03:26PM 34.0792 -84.5478 348° North 425 489 40,000  Level Atlanta Center
03:27PM 34.2042 -84.5764 349° North 441 507 40,000  Level Atlanta Center
03:28PM 34.3189 -84.6022 349° North 441 507 40,000  Level Atlanta Center
03:29PM 34.4378 -84.6333 348° North 431 496 40,000  Level Atlanta Center
03:30PM 34.5567 -84.6617 349° North 431 496 40,000  Level Atlanta Center
03:31PM 34.6669 -84.6903 348° North 424 488 40,000  Level Atlanta Center
03:32PM 34.7836 -84.7192 349° North 419 482 40,000  Level Atlanta Center
03:33PM 34.9047 -84.7506 348° North 425 489 40,000  Level Atlanta Center
03:34PM 35.0233 -84.7794 349° North 430 495 40,000  Level Atlanta Center
03:35PM 35.1422 -84.8083 349° North 430 495 40,000  Level Atlanta Center
03:36PM 35.2589 -84.8375 348° North 430 495 40,000  Level Atlanta Center
03:37PM 35.3797 -84.8692 348° North 430 495 40,000  Level Atlanta Center
03:38PM 35.4983 -84.8983 349° North 435 501 40,000  Level Atlanta Center
03:39PM 35.6192 -84.9303 348° North 435 501 40,000  Level Atlanta Center
03:40PM 35.7397 -84.9625 348° North 430 495 40,000  Level Atlanta Center
03:42PM 35.9219 -85.0039 350° North 441 507 40,000  Level Indianapolis Center
03:43PM 36.0456 -85.0361 348° North 454 522 40,000  Level Indianapolis Center
03:44PM 36.1672 -85.0664 349° North 449 517 40,000  Level Indianapolis Center
03:45PM 36.3119 -85.1028 349° North 444 511 40,000  Level Indianapolis Center
03:46PM 36.4328 -85.1339 348° North 444 511 40,000  Level Indianapolis Center
03:47PM 36.5528 -85.1672 347° North 444 511 40,000  Level Indianapolis Center
03:48PM 36.6750 -85.1967 349° North 444 511 40,000  Level Indianapolis Center
03:49PM 36.7967 -85.2289 348° North 444 511 40,000  Level Indianapolis Center
03:50PM 36.9181 -85.2600 348° North 445 512 40,000  Level Indianapolis Center
03:51PM 37.0589 -85.2981 348° North 445 512 40,000  Level Indianapolis Center
03:52PM 37.1817 -85.3306 348° North 445 512 40,000  Level Indianapolis Center
03:53PM 37.3028 -85.3636 348° North 445 512 40,000  Level Indianapolis Center
03:54PM 37.4267 -85.3953 349° North 445 512 40,000  Level Indianapolis Center
03:55PM 37.5675 -85.4333 348° North 445 512 40,000  Level Indianapolis Center
03:56PM 37.6883 -85.4664 348° North 445 512 40,000  Level Indianapolis Center
03:57PM 37.8108 -85.4992 348° North 445 512 40,000  Level Indianapolis Center
03:58PM 37.9303 -85.5297 349° North 447 514 40,000  Level Indianapolis Center
03:59PM 38.0522 -85.5628 348° North 447 514 40,000  Level Indianapolis Center
04:00PM 38.1892 -85.6250 340° North 440 506 40,000  Level Indianapolis Center
04:02PM 38.2969 -85.6906 334° Northwest 434 499 40,000  Level Indianapolis Center
04:03PM 38.4061 -85.7556 335° Northwest 433 498 40,000  Level Indianapolis Center
04:04PM 38.5147 -85.8200 335° Northwest 433 498 40,000  Level Indianapolis Center
04:05PM 38.6317 -85.8881 336° Northwest 433 498 40,000  Level Indianapolis Center
04:06PM 38.7342 -85.9500 335° Northwest 433 498 40,000  Level Indianapolis Center
04:07PM 38.8647 -86.0272 335° Northwest 433 498 40,000  Level Indianapolis Center
04:08PM 38.9597 -86.0842 335° Northwest 433 498 40,000  Level Indianapolis Center
04:09PM 39.0900 -86.1622 335° Northwest 433 498 40,000  Level Indianapolis Center
04:10PM 39.1972 -86.2286 334° Northwest 432 497 40,000  Level Indianapolis Center
04:11PM 39.3039 -86.2933 335° Northwest 428 493 40,000  Level Indianapolis Center
04:12PM 39.4108 -86.3586 335° Northwest 427 491 40,000  Level Indianapolis Center
04:13PM 39.5172 -86.4247 334° Northwest 425 489 40,000  Level Indianapolis Center
04:14PM 39.6267 -86.4908 335° Northwest 425 489 40,000  Level Indianapolis Center
04:15PM 39.7503 -86.5203 350° North 442 509 40,000  Level Indianapolis Center
04:16PM 39.8731 -86.5458 351° North 440 506 40,000  Level Indianapolis Center
04:17PM 39.9936 -86.6356 330° Northwest 419 482 40,000  Level Indianapolis Center
04:18PM 40.0931 -86.7114 330° Northwest 415 478 40,000  Level Indianapolis Center
04:19PM 40.1969 -86.7819 333° Northwest 417 480 40,000 -180 Level Indianapolis Center
04:20PM 40.3131 -86.8261 344° North 429 494 39,700 -780 Descending Indianapolis Center
04:21PM 40.4272 -86.8767 341° North 429 494 38,400 -1,320 Descending Indianapolis Center
04:22PM 40.5319 -86.9439 334° Northwest 423 487 37,000 -1,920 Descending Indianapolis Center
04:23PM 40.6553 -87.0319 332° Northwest 422 486 34,500 -2,580 Descending Indianapolis Center
04:24PM 40.7606 -87.1061 332° Northwest 426 490 31,700 -1,740 Descending Indianapolis Center
04:25PM 40.8836 -87.1233 354° North 438 504 31,000 -360 Descending Indianapolis Center
04:26PM 41.0058 -87.1447 352° North 441 507 31,000  Level Indianapolis Center
04:27PM 41.1317 -87.1597 355° North 449 517 31,000 -300 Level Indianapolis Center
04:28PM 41.2569 -87.1739 355° North 453 521 30,500 -1,140 Descending Indianapolis Center
04:30PM 41.4531 -87.1986 355° North 427 491 28,100 -1,500 Descending Chicago Center
04:31PM 41.5792 -87.2119 355° North 450 518 26,700 -1,440 Descending Chicago Center
04:32PM 41.7097 -87.2283 355° North 469 540 25,200 -1,500 Descending Chicago Center
04:33PM 41.8369 -87.2444 355° North 468 539 23,700 -1,560 Descending Chicago Center
04:34PM 41.9836 -87.2625 355° North 447 514 22,000 -1,560 Descending Chicago Center
04:35PM 42.1031 -87.2744 356° North 434 499 20,500 -1,440 Descending Chicago Center
04:36PM 42.2222 -87.2903 354° North 431 496 19,100 -1,260 Descending Chicago Center
04:37PM 42.3394 -87.3039 355° North 428 493 18,000 -1,140 Descending Chicago Center
04:38PM 42.4497 -87.3189 354° North 406 467 16,800 -1,920 Descending Chicago Center
04:39PM 42.5656 -87.3325 355° North 383 441 14,100 -2,820 Descending Chicago Center
04:40PM 42.6625 -87.3450 355° North 354 407 11,000 -2,040 Descending Chicago Center
04:41PM 42.7364 -87.4278 321° Northwest 312 359 10,000 -720 Descending Chicago Center
04:42PM 42.7817 -87.5225 303° West 301 346 9,500 -720 Descending Chicago Center
04:43PM 42.8181 -87.6117 299° West 272 313 8,500 -1,200 Descending Chicago Center
04:44PM 42.8581 -87.7011 301° West 273 314 7,100 -1,260 Descending Chicago Center
04:45PM 42.8967 -87.7894 301° West 272 313 6,000 -540 Descending Chicago Center
04:47PM 42.9339 -87.8722 302° West 261 300 6,000  Level Chicago Center
04:48PM 42.9808 -87.9767 302° West 265 305 6,000  Level Chicago Center
04:49PM 43.0192 -88.0633 301° West 266 306 6,000 -180 Level Chicago Center
04:50PM 43.0578 -88.1497 301° West 265 305 5,700 -960 Descending Chicago Center
04:51PM 43.0944 -88.2331 301° West 261 300 4,100 -840 Descending Chicago Center
04:52PM 43.1097 -88.3092 285° West 228 262 4,000 -360 Descending Chicago Center
04:53PM 43.1206 -88.3806 282° West 201 231 3,400 -540 Descending Chicago Center
04:54PM 43.1111 -88.4694 262° West 216 249 3,000 -240 Descending Chicago Center
04:55PM 43.0714 -88.4400 152° Southeast 200 230 3,000 -120 Level Chicago Center
04:56PM 43.0636 -88.3756 99° East 184 212 2,800 -540 Descending Chicago Center
04:57PM 43.0547 -88.3194 102° East 168 193 2,000 -720 Descending Chicago Center
04:58PM 43.0467 -88.2700 103° East 150 173 1,300 -720 Descending Chicago Center